Aerodrome Latest Weathers

# Airport/Station Observation Time (Local Time) Wind Visibility (km) Weather Temp. (°C) Dewdrop (°C) Air Pressure (hPa)
Direction (from) Speed (km/h)
1 Singkawang II - Sanggau Ledo, Kalbar 2024-04-22 07:00:00 WIB Selatan 5.6 6.0 Berawan 25 24 1012
2 Maimun Saleh - Sabang 2024-04-22 09:00:00 WIB Tenang 8.0 Cerah - berawan 31 25 1011
3 Sultan Iskandar Muda - Banda Aceh 2024-04-22 09:00:00 WIB Tenggara 7.4 >=10 Cerah - berawan 29 25 1010
4 Cut Nyak Dien Nagan Raya - Meulaboh, NAD 2024-04-22 08:00:00 WIB Timur Laut 7.4 8.0 Berawan 27 26 1009
5 Malikus Saleh - Lhokseumawe 2024-04-22 09:00:00 WIB Barat 7.4 9.0 Cerah - berawan 32 25 1009
6 Binaka - Gunung Sitoli 2024-04-22 09:00:00 WIB Barat Laut 5.6 9.0 Cerah - berawan 30 26 1009
7 Kualanamu International Airport - Deli Serdang 2024-04-22 09:00:00 WIB Barat 7.4 9.0 Cerah - berawan 31 25 1009
8 Dr. Ferdinand Lumban Tobing - Pinangsori (Sibolga) 2024-04-22 09:00:00 WIB Tenggara 5.6 >=10 Berawan 29 25 1009
9 Silangit - Tapanuli Utara 2024-04-22 09:00:00 WIB Timur Laut 11.1 8.0 Berawan 21 21 1018
10 Aek Godang - Padang Sidempuan 2024-04-22 09:00:00 WIB Barat Laut 1.9 8.0 Cerah - berawan 27 24 1010
11 Minangkabau International Airport - Padang 2024-04-22 09:00:00 WIB Utara 7.4 >=10 Cerah - berawan 32 25 1009
12 Sultan Syarif Kasim II - Pekanbaru 2024-04-22 09:00:00 WIB Tenang >=10 Cerah - berawan 28 27 1008
13 Depati Parbo - Kerinci 2024-04-22 09:00:00 WIB Tenang >=10 Berawan 28 23 1016
14 Japura - Rengat 2024-04-22 09:00:00 WIB Tenang 8.0 Berawan 29 26 1009
15 Fatmawati Sukarno - Bengkulu 2024-04-22 09:00:00 WIB Timur 7.4 >=10 Cerah - berawan 30 25 1008
16 Raja Haji Abdullah - Tanjung Balai Karimun 2024-04-22 09:00:00 WIB Barat Laut 5.6 8.0 Berawan 31 26 1009
17 Sultan Thaha - Jambi 2024-04-22 09:00:00 WIB Tenggara 7.4 >=10 Berawan 29 26 1010
18 Hang Nadim - Batam 2024-04-22 09:00:00 WIB Tenggara 7.4 >=10 Berawan 31 26 1011
19 Raja Haji Fisabilillah - Tanjung Pinang 2024-04-22 08:30:00 WIB Timur Laut 9.3 >=10 Cerah - berawan 31 27 1009
20 Dabo - Singkep 2024-04-22 09:00:00 WIB Selatan 3.7 7.0 Berawan 31 27 1009
21 Sultan Mahmud Badaruddin II - Palembang 2024-04-22 09:00:00 WIB Tenggara 11.1 >=10 Cerah - berawan 30 26 1010
22 Radin Inten II - Lampung 2024-04-22 09:00:00 WIB Tenggara 7.4 >=10 Cerah - berawan 29 29 1010
23 Astra Ksetra - Lampung 2024-04-22 09:00:00 WIB Selatan 7.4 8.0 Cerah - berawan 28 25 1008
24 Depati Amir - Pangkal Pinang 2024-04-22 09:00:00 WIB Timur 16.7 >=10 Berawan 32 26 1009
25 MATAK 2024-04-22 09:00:00 WIB Selatan 11.1 6.0 Berawan 32 29 1009
26 Budiarto - Curug 2024-04-22 09:00:00 WIB Tenggara 3.7 9.0 Cerah - berawan 29 26 1010
27 Soekarno Hatta - Jakarta 2024-04-22 09:00:00 WIB Timur 11.1 6.0 Cerah - berawan 32 24 1009
28 Atang Sendjaja - Bogor 2024-04-22 07:00:00 WIB Selatan 3.7 5.0 Udara kabur 25 23 1008
29 Halim Perdana Kusuma - Jakarta 2024-04-22 09:00:00 WIB Timur Laut 13.0 6.0 Cerah - berawan 31 24 1009
30 Husein Sastranegara - Bandung 2024-04-22 08:30:00 WIB Barat 3.7 2.5 Udara kabur 25 23 1015
31 Suryadarma - Kalijati, Subang 2024-04-22 09:00:00 WIB Tenggara 14.8 >=10 Cerah 29 25 1008
32 H.A.S. Hanandjoeddin - Tanjung Pandan 2024-04-22 09:00:00 WIB Timur 9.3 >=10 Berawan 30 26 1010
33 Kertajati 2024-04-22 09:00:00 WIB Timur 5.6 8.0 Cerah - berawan 30 28 1010
34 Wiriadinata - Cibeureum, Tasikmalaya 2024-04-22 08:00:00 WIB Tenang 5.0 Udara kabur 25 24 1012
35 Ranai - Natuna 2024-04-22 07:00:00 WIB Tenang 7.0 Berawan 29 26 1009
36 Cakrabhuwana / Penggung - Cirebon 2024-04-22 09:00:00 WIB Tenggara 7.4 5.0 Udara kabur 31 25 1010
37 Tunggul Wulung - Cilacap 2024-04-22 09:00:00 WIB Variabel 5.6 7.0 Berawan 30 25 1010
38 Paloh - Sambas 2024-04-22 08:18:00 WIB Tenggara 3.7 >=10 Berawan 27 26 1011
39 Supadio - Pontianak 2024-04-22 09:00:00 WIB Timur 9.3 >=10 Cerah - berawan 29 27 1010
40 Rahadi Oesman - Ketapang 2024-04-22 09:00:00 WIB Timur 9.3 9.0 Berawan 30 27 1010
41 Yogyakarta International Airport - Kulonprogo 2024-04-22 09:00:00 WIB Barat Daya 5.6 >=10 Cerah - berawan 29 25 1011
42 Ahmad Yani - Semarang 2024-04-22 09:00:00 WIB Timur 7.4 7.0 Cerah - berawan 31 25 1010
43 Adi Sutjipto - Yogyakarta 2024-04-22 09:00:00 WIB Barat Daya 5.6 5.0 Udara kabur 29 24 1010
44 Adi Soemarmo - Surakarta 2024-04-22 09:00:00 WIB Selatan 5.6 6.0 Cerah - berawan 29 25 1011
45 Iswahjudi - Madiun 2024-04-22 07:30:00 WIB Selatan 3.7 6.0 Cerah - berawan 25 24 1011
46 Tebelian - Sintang 2024-04-22 09:00:00 WIB Tenggara 5.6 9.0 Berawan 29 25 1012
47 Iskandar - Pangkalan Bun 2024-04-22 09:00:00 WIB Variabel 5.6 >=10 Berawan 27 26 1010
48 Nanga Pinoh 2024-04-22 09:00:00 WIB Tenang 7.0 Berawan 28 24 1011
49 Bawean - Harun Thohir 2024-04-22 09:00:00 WIB Timur Laut 1.9 8.0 Hujan ringan 30 29 1010
50 Abdulrachman Saleh - Malang 2024-04-22 08:00:00 WIB Barat 7.4 5.0 Udara kabur 26 23 1014
51 Juanda - Surabaya 2024-04-22 09:00:00 WIB Variabel 3.7 >=10 Cerah - berawan 31 27 1010
52 Pangsuma - Putussibau 2024-04-22 09:00:00 WIB Utara 7.4 6.0 Berawan 28 26 1012
53 Haji Asan - Sampit 2024-04-22 09:00:00 WIB Barat 9.3 >=10 Berawan 30 27 1010
54 Noto Hadinegoro - Jember 2024-04-22 09:00:00 WIB Barat 3.7 7.0 Cerah - berawan 29 27 1011
55 Trunojoyo - Sumenep 2024-04-22 09:00:00 WIB Timur 5.6 Cerah 30 28 1010
56 Tjilik Riwut - Palangkaraya 2024-04-22 09:00:00 WIB Timur Laut 3.7 >=10 Berawan 27 25 1010
57 Banyuwangi 2024-04-22 09:00:00 WIB Barat Daya 3.7 8.0 Berawan 28 28 1011
58 Sanggu - Buntok 2024-04-22 09:00:00 WIB Utara 5.6 >=10 Berawan 29 25 1011
59 Haji Muhammad Sidik - Muara Teweh 2024-04-22 09:00:00 WIB Barat Laut 5.6 8.0 Berawan 30 26 1011
60 H. Hasan Aroeboesman - Ende 2024-04-22 09:00:00 WIB Tenggara 14.8 8.0 Berawan 30 26 1010
61 Syamsudin Noor - Banjarmasin 2024-04-22 10:00:00 WITA Utara 9.3 >=10 Berawan 30 26 1010
62 I Gusti Ngurah Rai - Denpasar 2024-04-22 10:00:00 WITA Timur 22.2 5.0 Hujan ringan 28 27 1010
63 Yuvai Semaring - Long Bawang 2024-04-22 10:00:00 WITA Barat Daya 5.6 5.0 Gerimis ringan 24 21 1018
64 Gusti Sjamsir Alam - Kota Baru 2024-04-22 10:00:00 WITA Tenggara 3.7 8.0 Berawan 31 26 1009
65 Bandara Internasional Lombok - Praya 2024-04-22 10:00:00 WITA Tenggara 13.0 7.0 Berawan 30 26 1011
66 Bandar Udara Robert Atty Bessing 2024-04-22 09:30:00 WITA Tenang 7.0 Berawan 31 27 1010
67 Sultan Aji Muhammad Sulaiman - Sepinggan 2024-04-22 10:00:00 WITA Barat Laut 9.3 >=10 Cerah - berawan 32 23 1010
68 Aji Pangeran Tumenggung Pranoto - Samarinda 2024-04-22 10:00:00 WITA Barat Laut 11.1 >=10 Berawan 31 25 1010
69 Tanjung Harapan - Tanjung Selor 2024-04-22 10:00:00 WITA Tenang 8.0 Berawan 31 24 1010
70 Sultan Muhammad Kaharuddin - Sumbawa Besar 2024-04-22 10:00:00 WITA Tenggara 14.8 >=10 Berawan 32 25 1009
71 Kalimarau - Tanjung Redeb 2024-04-22 10:00:00 WITA Variabel 3.7 >=10 Cerah - berawan 32 26 1012
72 Juwata - Tarakan 2024-04-22 10:00:00 WITA Barat Daya 9.3 >=10 Berawan 32 26 1010
73 Nunukan 2024-04-22 10:00:00 WITA Barat Laut 9.3 8.0 Berawan 30 24 1009
74 Sultan Muhammad Salahuddin - Bima 2024-04-22 10:00:00 WITA Tenggara 7.4 >=10 Berawan 31 24 1009
75 Tampa Padang - Mamuju 2024-04-22 10:00:00 WITA Barat Laut 7.4 >=10 Cerah - berawan 31 26 1010
76 Tambolaka - Sumba Barat 2024-04-22 10:00:00 WITA Timur 7.4 >=10 Berawan 31 24 1009
77 Sultan Hasanuddin - Makassar 2024-04-22 10:00:00 WITA Variabel 3.7 >=10 Cerah - berawan 30 27 1010
78 Pongtiku - Tana Toraja 2024-04-22 10:00:00 WITA Selatan 7.4 >=10 Berawan 26 22 1011
79 Komodo - Labuan Bajo 2024-04-22 10:00:00 WITA Timur Laut 9.3 9.0 Berawan 29 26 1011
80 Mutiara SIS Al-Jufri - Palu 2024-04-22 10:00:00 WITA Barat 7.4 >=10 Cerah - berawan 33 24 1010
81 Umbu Mehang Kunda - Waingapu 2024-04-22 10:00:00 WITA Tenggara 13.0 9.0 Berawan 29 26 1010
82 Andi Jemma - Masamba 2024-04-22 10:00:00 WITA Barat Daya 3.7 9.0 Cerah - berawan 30 24 1010
83 Frans Sales Lega - Ruteng 2024-04-22 10:00:00 WITA Barat Laut 3.7 >=10 Berawan 23 21 1016
84 Kasiguncu - Poso 2024-04-22 10:00:00 WITA Tenang >=10 Cerah - berawan 33 25 1009
85 Sultan Bantilan - Toli Toli 2024-04-22 10:00:00 WITA Barat Laut 5.6 >=10 Cerah - berawan 31 25 1010
86 SOA - Bajawa 2024-04-22 10:00:00 WITA Timur Laut 5.6 >=10 Cerah - berawan 29 23 1014
87 Sangia Nibandera - Kolaka 2024-04-22 10:00:00 WITA Barat Daya 11.1 Cerah 28 25 1010
88 Tardamu - Sabu 2024-04-22 10:00:00 WITA Tenggara 14.8 >=10 Cerah - berawan 31 24 1011
89 Fransiskus Xaverius Seda - Maumere 2024-04-22 10:00:00 WITA Barat Daya 11.1 >=10 Berawan 31 29 1011
90 Haluoleo - Kendari 2024-04-22 09:00:00 WITA Tenang 4.0 Halimun 28 26 1011
91 Beto Ambari - Bau Bau 2024-04-22 10:00:00 WITA Timur 7.4 >=10 Berawan 30 26 1011
92 Syukuran Aminuddin Amir - Luwuk 2024-04-22 10:00:00 WITA Timur 5.6 >=10 Berawan 30 26 1010
93 Djalaluddin - Gorontalo 2024-04-22 10:00:00 WITA Tenggara 9.3 >=10 Cerah - berawan 32 26 1008
94 Gewayantana - Larantuka 2024-04-22 10:00:00 WITA Selatan 7.4 >=10 Berawan 29 26 1010
95 David Constantijn Saudale - Rote 2024-04-22 10:00:00 WITA Timur 22.2 >=10 Cerah - berawan 30 24 1012
96 El Tari - Kupang 2024-04-22 10:00:00 WITA Timur 24.1 >=10 Cerah - berawan 33 26 1012
97 Mali - Alor 2024-04-22 09:30:00 WITA Tenggara 5.6 >=10 Berawan 30 26 1011
98 A.A. Bere Talo / Atambua 2024-04-22 10:00:00 WITA Timur Laut 11.1 >=10 Berawan 30 22 1012
99 Sam Ratulangi - Manado 2024-04-22 10:00:00 WITA Variabel 1.9 >=10 Berawan 30 26 1010
100 Naha - Tahuna 2024-04-22 08:00:00 WITA Timur Laut 5.6 6.0 Berawan 30 26 1009
101 Emalamo - Sanana 2024-04-22 10:00:00 WIT Timur 5.6 8.0 Berawan 29 27 1010
102 Namniwel - Namlea 2024-04-22 09:00:00 WIT Selatan 13.0 >=10 Cerah - berawan 29 27 1008
103 Sultan Babullah - Ternate 2024-04-22 11:00:00 WIT Tenggara 7.4 >=10 Cerah - berawan 35 31 1010
104 Oesman Sadik - Labuha 2024-04-22 11:00:00 WIT Timur Laut 24.1 9.0 Berawan 31 26 1009
105 Gamar Malamo - Galela 2024-04-22 11:00:00 WIT Timur 7.4 >=10 Berawan 31 25 1009
106 Pattimura - Ambon 2024-04-22 11:00:00 WIT Selatan 5.6 >=10 Berawan 31 26 1010
107 Pitu - Morotai 2024-04-22 11:00:00 WIT Timur 18.5 >=10 Cerah - berawan 31 26 1009
108 Amahai 2024-04-22 11:00:00 WIT Barat Daya 9.3 >=10 Berawan 30 26 1010
109 Bandaneira - Banda 2024-04-22 11:00:00 WIT Selatan 16.7 >=10 Berawan 30 27 1010
110 Domine Eduard Osok - Sorong 2024-04-22 11:00:00 WIT Variabel 5.6 9.0 Berawan 30 26 1009
111 Mathilda Batlayeri - Saumlaki 2024-04-22 10:00:00 WIT Tenggara 11.1 >=10 Berawan 30 25 1010
112 Torea - Fak Fak 2024-04-22 11:00:00 WIT Barat 9.3 8.0 Berawan 29 27 1011
113 Karel Sadsuitubun - Tual 2024-04-22 11:00:00 WIT Timur 7.4 8.0 Berawan 28 27 1010
114 Utarom - Kaimana 2024-04-22 11:00:00 WIT Utara 7.4 7.0 Hujan tiba-tiba di sekitarnya 30 27 1010
115 Rendani - Manokwari 2024-04-22 11:00:00 WIT Timur 16.7 >=10 Cerah - berawan 33 26 1009
116 Douw Aturure - Nabire 2024-04-22 11:00:00 WIT Barat Daya 7.4 7.0 Berawan 27 25 1010
117 Stevanus Rumbewas - Serui 2024-04-22 11:00:00 WIT Timur 11.1 >=10 Cerah - berawan 32 26 1007
118 Frans Kaisiepo - Biak 2024-04-22 11:00:00 WIT Tenggara 18.5 >=10 Cerah - berawan 32 26 1009
119 Mozes Kilangin - Timika 2024-04-22 11:05:00 WIT Tenang >=10 Hujan tiba-tiba 30 27 1011
120 Wamena 2024-04-22 11:00:00 WIT Variabel 3.7 >=10 Berawan 23 16 1020
121 Mopah - Merauke 2024-04-22 11:00:00 WIT Timur Laut 7.4 >=10 Berawan 31 25 1009
122 Sentani - Jayapura 2024-04-22 11:00:00 WIT Tenggara 9.3 >=10 Cerah - berawan 32 25 1008

Satellite Images

Wave Height Forecast

Wind Forecast

Forest Fires